sensor_id;sensor_type;location;lat;lon;timestamp;P1;durP1;ratioP1;P2;durP2;ratioP2
74064;SDS011;62421;51.412;5.432;2022-10-31T00:02:19;22.10;;;8.43;;
74064;SDS011;62421;51.412;5.432;2022-10-31T00:04:44;28.30;;;9.43;;
74064;SDS011;62421;51.412;5.432;2022-10-31T00:07:10;20.20;;;8.30;;
74064;SDS011;62421;51.412;5.432;2022-10-31T00:09:35;25.67;;;8.83;;
74064;SDS011;62421;51.412;5.432;2022-10-31T00:12:00;14.57;;;7.27;;
74064;SDS011;62421;51.412;5.432;2022-10-31T00:14:26;18.50;;;8.17;;
74064;SDS011;62421;51.412;5.432;2022-10-31T00:16:51;18.10;;;8.70;;
74064;SDS011;62421;51.412;5.432;2022-10-31T00:19:16;26.40;;;8.80;;
74064;SDS011;62421;51.412;5.432;2022-10-31T00:21:41;19.17;;;9.13;;
74064;SDS011;62421;51.412;5.432;2022-10-31T00:24:07;17.95;;;8.48;;
74064;SDS011;62421;51.412;5.432;2022-10-31T00:26:32;22.58;;;9.23;;
74064;SDS011;62421;51.412;5.432;2022-10-31T00:28:58;19.83;;;9.00;;
74064;SDS011;62421;51.412;5.432;2022-10-31T00:31:24;20.73;;;9.38;;
74064;SDS011;62421;51.412;5.432;2022-10-31T00:33:49;16.03;;;8.73;;
74064;SDS011;62421;51.412;5.432;2022-10-31T00:36:16;21.23;;;8.87;;
74064;SDS011;62421;51.412;5.432;2022-10-31T00:38:43;14.70;;;8.27;;
74064;SDS011;62421;51.412;5.432;2022-10-31T00:41:09;21.30;;;8.82;;
74064;SDS011;62421;51.412;5.432;2022-10-31T00:43:35;18.00;;;8.87;;
74064;SDS011;62421;51.412;5.432;2022-10-31T00:46:00;20.40;;;9.77;;
74064;SDS011;62421;51.412;5.432;2022-10-31T00:48:26;29.93;;;9.50;;
74064;SDS011;62421;51.412;5.432;2022-10-31T00:50:51;18.17;;;8.97;;
74064;SDS011;62421;51.412;5.432;2022-10-31T00:53:16;19.10;;;8.87;;
74064;SDS011;62421;51.412;5.432;2022-10-31T00:55:42;18.27;;;8.40;;
74064;SDS011;62421;51.412;5.432;2022-10-31T00:58:07;19.20;;;8.70;;
74064;SDS011;62421;51.412;5.432;2022-10-31T01:00:32;19.67;;;9.47;;
74064;SDS011;62421;51.412;5.432;2022-10-31T01:02:58;21.13;;;9.13;;
74064;SDS011;62421;51.412;5.432;2022-10-31T01:05:23;18.33;;;9.10;;
74064;SDS011;62421;51.412;5.432;2022-10-31T01:07:48;21.70;;;10.27;;
74064;SDS011;62421;51.412;5.432;2022-10-31T01:10:14;16.80;;;8.60;;
74064;SDS011;62421;51.412;5.432;2022-10-31T01:12:40;17.50;;;8.77;;
74064;SDS011;62421;51.412;5.432;2022-10-31T01:15:11;18.75;;;9.15;;
74064;SDS011;62421;51.412;5.432;2022-10-31T01:17:38;17.20;;;8.98;;
74064;SDS011;62421;51.412;5.432;2022-10-31T01:20:04;21.83;;;9.63;;
74064;SDS011;62421;51.412;5.432;2022-10-31T01:22:31;21.30;;;9.27;;
74064;SDS011;62421;51.412;5.432;2022-10-31T01:24:57;18.00;;;8.60;;
74064;SDS011;62421;51.412;5.432;2022-10-31T01:27:22;24.07;;;8.97;;
74064;SDS011;62421;51.412;5.432;2022-10-31T01:29:47;25.57;;;9.57;;
74064;SDS011;62421;51.412;5.432;2022-10-31T01:32:13;17.13;;;8.80;;
74064;SDS011;62421;51.412;5.432;2022-10-31T01:34:38;16.57;;;9.07;;
74064;SDS011;62421;51.412;5.432;2022-10-31T01:37:03;18.00;;;8.80;;
74064;SDS011;62421;51.412;5.432;2022-10-31T01:39:29;21.80;;;9.30;;
74064;SDS011;62421;51.412;5.432;2022-10-31T01:41:54;20.95;;;10.00;;
74064;SDS011;62421;51.412;5.432;2022-10-31T01:46:46;15.43;;;8.43;;
74064;SDS011;62421;51.412;5.432;2022-10-31T01:49:14;21.10;;;9.95;;
74064;SDS011;62421;51.412;5.432;2022-10-31T01:54:42;16.02;;;8.23;;
74064;SDS011;62421;51.412;5.432;2022-10-31T01:57:13;17.83;;;9.18;;
74064;SDS011;62421;51.412;5.432;2022-10-31T01:59:41;23.33;;;9.15;;
74064;SDS011;62421;51.412;5.432;2022-10-31T02:02:10;20.38;;;9.80;;
74064;SDS011;62421;51.412;5.432;2022-10-31T02:04:36;22.43;;;9.17;;
74064;SDS011;62421;51.412;5.432;2022-10-31T02:09:53;17.42;;;9.38;;
74064;SDS011;62421;51.412;5.432;2022-10-31T02:12:20;19.45;;;8.23;;
74064;SDS011;62421;51.412;5.432;2022-10-31T02:14:46;18.20;;;9.40;;
74064;SDS011;62421;51.412;5.432;2022-10-31T02:17:11;15.63;;;8.63;;
74064;SDS011;62421;51.412;5.432;2022-10-31T02:19:40;19.02;;;10.10;;
74064;SDS011;62421;51.412;5.432;2022-10-31T02:22:22;20.13;;;9.03;;
74064;SDS011;62421;51.412;5.432;2022-10-31T02:38:34;18.83;;;9.23;;
74064;SDS011;62421;51.412;5.432;2022-10-31T02:43:49;21.00;;;9.50;;
74064;SDS011;62421;51.412;5.432;2022-10-31T02:46:45;15.98;;;8.48;;
74064;SDS011;62421;51.412;5.432;2022-10-31T02:52:18;20.45;;;8.93;;
74064;SDS011;62421;51.412;5.432;2022-10-31T02:54:45;22.55;;;8.07;;
74064;SDS011;62421;51.412;5.432;2022-10-31T02:57:11;16.30;;;9.35;;
74064;SDS011;62421;51.412;5.432;2022-10-31T02:59:38;16.70;;;9.07;;
74064;SDS011;62421;51.412;5.432;2022-10-31T03:02:16;22.25;;;9.80;;
74064;SDS011;62421;51.412;5.432;2022-10-31T03:05:03;17.15;;;8.80;;
74064;SDS011;62421;51.412;5.432;2022-10-31T03:08:00;16.08;;;9.00;;
74064;SDS011;62421;51.412;5.432;2022-10-31T03:10:53;17.23;;;8.07;;
74064;SDS011;62421;51.412;5.432;2022-10-31T03:19:25;15.90;;;8.30;;
74064;SDS011;62421;51.412;5.432;2022-10-31T03:24:41;15.80;;;7.90;;
74064;SDS011;62421;51.412;5.432;2022-10-31T03:27:08;16.80;;;7.97;;
74064;SDS011;62421;51.412;5.432;2022-10-31T03:29:37;16.70;;;8.25;;
74064;SDS011;62421;51.412;5.432;2022-10-31T03:32:09;16.15;;;9.13;;
74064;SDS011;62421;51.412;5.432;2022-10-31T03:34:40;22.30;;;9.13;;
74064;SDS011;62421;51.412;5.432;2022-10-31T03:37:08;17.92;;;9.18;;
74064;SDS011;62421;51.412;5.432;2022-10-31T03:39:37;19.23;;;9.50;;
74064;SDS011;62421;51.412;5.432;2022-10-31T03:42:06;17.27;;;10.50;;
74064;SDS011;62421;51.412;5.432;2022-10-31T03:44:35;21.50;;;11.32;;
74064;SDS011;62421;51.412;5.432;2022-10-31T03:47:01;26.17;;;9.77;;
74064;SDS011;62421;51.412;5.432;2022-10-31T03:49:27;19.55;;;9.57;;
74064;SDS011;62421;51.412;5.432;2022-10-31T03:54:27;17.52;;;8.93;;
74064;SDS011;62421;51.412;5.432;2022-10-31T04:00:01;15.87;;;9.37;;
74064;SDS011;62421;51.412;5.432;2022-10-31T04:02:33;17.73;;;8.55;;
74064;SDS011;62421;51.412;5.432;2022-10-31T04:05:03;16.65;;;9.90;;
74064;SDS011;62421;51.412;5.432;2022-10-31T04:07:30;22.70;;;9.98;;
74064;SDS011;62421;51.412;5.432;2022-10-31T04:10:00;16.88;;;10.00;;
74064;SDS011;62421;51.412;5.432;2022-10-31T04:12:29;18.37;;;9.27;;
74064;SDS011;62421;51.412;5.432;2022-10-31T04:14:57;21.67;;;9.18;;
74064;SDS011;62421;51.412;5.432;2022-10-31T04:17:24;19.20;;;9.60;;
74064;SDS011;62421;51.412;5.432;2022-10-31T04:19:54;19.25;;;10.10;;
74064;SDS011;62421;51.412;5.432;2022-10-31T04:22:19;22.60;;;10.53;;
74064;SDS011;62421;51.412;5.432;2022-10-31T04:24:45;21.27;;;10.03;;
74064;SDS011;62421;51.412;5.432;2022-10-31T04:27:10;22.97;;;9.73;;
74064;SDS011;62421;51.412;5.432;2022-10-31T04:29:36;22.65;;;10.90;;
74064;SDS011;62421;51.412;5.432;2022-10-31T04:32:01;22.92;;;11.90;;
74064;SDS011;62421;51.412;5.432;2022-10-31T04:34:26;22.10;;;11.45;;
74064;SDS011;62421;51.412;5.432;2022-10-31T04:36:51;22.27;;;10.57;;
74064;SDS011;62421;51.412;5.432;2022-10-31T04:39:17;23.33;;;10.90;;
74064;SDS011;62421;51.412;5.432;2022-10-31T04:41:42;20.93;;;9.67;;
74064;SDS011;62421;51.412;5.432;2022-10-31T04:44:07;20.87;;;9.77;;
74064;SDS011;62421;51.412;5.432;2022-10-31T04:46:33;22.93;;;10.70;;
74064;SDS011;62421;51.412;5.432;2022-10-31T04:48:58;21.73;;;10.40;;
74064;SDS011;62421;51.412;5.432;2022-10-31T04:51:23;22.13;;;9.37;;
74064;SDS011;62421;51.412;5.432;2022-10-31T04:53:49;17.87;;;10.40;;
74064;SDS011;62421;51.412;5.432;2022-10-31T04:56:14;20.53;;;10.67;;
74064;SDS011;62421;51.412;5.432;2022-10-31T04:58:39;23.50;;;10.60;;
74064;SDS011;62421;51.412;5.432;2022-10-31T05:01:05;20.20;;;11.10;;
74064;SDS011;62421;51.412;5.432;2022-10-31T05:03:30;22.43;;;10.83;;
74064;SDS011;62421;51.412;5.432;2022-10-31T05:05:55;23.07;;;10.43;;
74064;SDS011;62421;51.412;5.432;2022-10-31T05:08:20;20.85;;;10.50;;
74064;SDS011;62421;51.412;5.432;2022-10-31T05:10:46;21.10;;;9.90;;
74064;SDS011;62421;51.412;5.432;2022-10-31T05:13:11;19.17;;;10.40;;
74064;SDS011;62421;51.412;5.432;2022-10-31T05:15:36;21.13;;;11.00;;
74064;SDS011;62421;51.412;5.432;2022-10-31T05:18:02;22.60;;;10.70;;
74064;SDS011;62421;51.412;5.432;2022-10-31T05:20:28;23.43;;;11.00;;
74064;SDS011;62421;51.412;5.432;2022-10-31T05:22:55;18.65;;;11.10;;
74064;SDS011;62421;51.412;5.432;2022-10-31T05:25:22;23.55;;;11.50;;
74064;SDS011;62421;51.412;5.432;2022-10-31T05:27:50;22.73;;;12.27;;
74064;SDS011;62421;51.412;5.432;2022-10-31T05:30:17;26.50;;;11.33;;
74064;SDS011;62421;51.412;5.432;2022-10-31T05:32:48;20.70;;;11.10;;
74064;SDS011;62421;51.412;5.432;2022-10-31T05:35:24;19.38;;;10.75;;
74064;SDS011;62421;51.412;5.432;2022-10-31T05:37:51;26.17;;;12.15;;
74064;SDS011;62421;51.412;5.432;2022-10-31T05:40:17;28.70;;;12.27;;
74064;SDS011;62421;51.412;5.432;2022-10-31T05:42:44;22.25;;;10.88;;
74064;SDS011;62421;51.412;5.432;2022-10-31T05:45:10;22.53;;;11.80;;
74064;SDS011;62421;51.412;5.432;2022-10-31T05:47:38;22.90;;;11.98;;
74064;SDS011;62421;51.412;5.432;2022-10-31T05:50:04;24.60;;;11.63;;
74064;SDS011;62421;51.412;5.432;2022-10-31T05:52:31;25.98;;;11.65;;
74064;SDS011;62421;51.412;5.432;2022-10-31T05:54:57;23.80;;;11.82;;
74064;SDS011;62421;51.412;5.432;2022-10-31T05:57:22;25.77;;;12.60;;
74064;SDS011;62421;51.412;5.432;2022-10-31T05:59:47;28.50;;;12.53;;
74064;SDS011;62421;51.412;5.432;2022-10-31T06:02:13;23.50;;;12.00;;
74064;SDS011;62421;51.412;5.432;2022-10-31T06:04:38;25.03;;;14.17;;
74064;SDS011;62421;51.412;5.432;2022-10-31T06:07:03;25.70;;;13.40;;
74064;SDS011;62421;51.412;5.432;2022-10-31T06:09:28;29.33;;;13.33;;
74064;SDS011;62421;51.412;5.432;2022-10-31T06:11:54;27.60;;;12.85;;
74064;SDS011;62421;51.412;5.432;2022-10-31T06:14:19;26.38;;;13.70;;
74064;SDS011;62421;51.412;5.432;2022-10-31T06:16:44;26.60;;;12.73;;
74064;SDS011;62421;51.412;5.432;2022-10-31T06:19:10;23.40;;;12.17;;
74064;SDS011;62421;51.412;5.432;2022-10-31T06:21:35;30.30;;;12.07;;
74064;SDS011;62421;51.412;5.432;2022-10-31T06:24:00;30.97;;;13.10;;
74064;SDS011;62421;51.412;5.432;2022-10-31T06:26:26;30.87;;;14.13;;
74064;SDS011;62421;51.412;5.432;2022-10-31T06:28:51;27.37;;;12.97;;
74064;SDS011;62421;51.412;5.432;2022-10-31T06:31:16;30.40;;;12.97;;
74064;SDS011;62421;51.412;5.432;2022-10-31T06:33:42;23.73;;;12.83;;
74064;SDS011;62421;51.412;5.432;2022-10-31T06:36:08;26.48;;;12.00;;
74064;SDS011;62421;51.412;5.432;2022-10-31T06:38:33;26.75;;;13.10;;
74064;SDS011;62421;51.412;5.432;2022-10-31T06:41:03;30.40;;;14.27;;
74064;SDS011;62421;51.412;5.432;2022-10-31T06:43:29;32.30;;;13.17;;
74064;SDS011;62421;51.412;5.432;2022-10-31T06:45:54;31.02;;;14.32;;
74064;SDS011;62421;51.412;5.432;2022-10-31T06:48:19;27.13;;;14.60;;
74064;SDS011;62421;51.412;5.432;2022-10-31T06:50:45;28.10;;;13.80;;
74064;SDS011;62421;51.412;5.432;2022-10-31T06:53:10;30.60;;;13.60;;
74064;SDS011;62421;51.412;5.432;2022-10-31T06:55:35;26.33;;;13.67;;
74064;SDS011;62421;51.412;5.432;2022-10-31T06:58:01;32.43;;;13.27;;
74064;SDS011;62421;51.412;5.432;2022-10-31T07:00:27;24.60;;;13.43;;
74064;SDS011;62421;51.412;5.432;2022-10-31T07:03:27;29.08;;;14.60;;
74064;SDS011;62421;51.412;5.432;2022-10-31T07:05:46;26.60;;;13.98;;
74064;SDS011;62421;51.412;5.432;2022-10-31T07:08:12;28.83;;;13.97;;
74064;SDS011;62421;51.412;5.432;2022-10-31T07:10:39;28.38;;;14.55;;
74064;SDS011;62421;51.412;5.432;2022-10-31T07:13:06;29.47;;;12.97;;
74064;SDS011;62421;51.412;5.432;2022-10-31T07:15:36;26.30;;;14.60;;
74064;SDS011;62421;51.412;5.432;2022-10-31T07:18:03;28.08;;;14.65;;
74064;SDS011;62421;51.412;5.432;2022-10-31T07:20:30;33.97;;;15.63;;
74064;SDS011;62421;51.412;5.432;2022-10-31T07:22:56;28.77;;;15.32;;
74064;SDS011;62421;51.412;5.432;2022-10-31T07:25:22;40.17;;;15.10;;
74064;SDS011;62421;51.412;5.432;2022-10-31T07:27:47;30.23;;;16.10;;
74064;SDS011;62421;51.412;5.432;2022-10-31T07:30:13;29.60;;;15.27;;
74064;SDS011;62421;51.412;5.432;2022-10-31T07:32:46;32.03;;;15.52;;
74064;SDS011;62421;51.412;5.432;2022-10-31T07:35:13;29.70;;;15.75;;
74064;SDS011;62421;51.412;5.432;2022-10-31T07:37:44;35.42;;;15.95;;
74064;SDS011;62421;51.412;5.432;2022-10-31T07:40:09;29.33;;;16.07;;
74064;SDS011;62421;51.412;5.432;2022-10-31T07:42:37;48.47;;;18.48;;
74064;SDS011;62421;51.412;5.432;2022-10-31T07:45:04;36.60;;;18.25;;
74064;SDS011;62421;51.412;5.432;2022-10-31T07:47:41;39.45;;;19.48;;
74064;SDS011;62421;51.412;5.432;2022-10-31T07:50:21;38.10;;;18.93;;
74064;SDS011;62421;51.412;5.432;2022-10-31T07:53:03;40.50;;;19.15;;
74064;SDS011;62421;51.412;5.432;2022-10-31T07:55:31;37.88;;;18.42;;
74064;SDS011;62421;51.412;5.432;2022-10-31T07:57:57;41.17;;;19.77;;
74064;SDS011;62421;51.412;5.432;2022-10-31T08:00:24;41.78;;;19.33;;
74064;SDS011;62421;51.412;5.432;2022-10-31T08:02:56;41.03;;;18.60;;
74064;SDS011;62421;51.412;5.432;2022-10-31T08:05:23;41.50;;;19.45;;
74064;SDS011;62421;51.412;5.432;2022-10-31T08:07:48;41.17;;;19.67;;
74064;SDS011;62421;51.412;5.432;2022-10-31T08:10:13;44.73;;;20.43;;
74064;SDS011;62421;51.412;5.432;2022-10-31T08:12:39;37.47;;;20.27;;
74064;SDS011;62421;51.412;5.432;2022-10-31T08:15:04;45.00;;;23.63;;
74064;SDS011;62421;51.412;5.432;2022-10-31T08:17:30;52.58;;;23.98;;
74064;SDS011;62421;51.412;5.432;2022-10-31T08:19:55;54.37;;;26.37;;
74064;SDS011;62421;51.412;5.432;2022-10-31T08:22:20;63.23;;;27.63;;
74064;SDS011;62421;51.412;5.432;2022-10-31T08:24:45;61.90;;;30.30;;
74064;SDS011;62421;51.412;5.432;2022-10-31T08:27:11;66.00;;;28.93;;
74064;SDS011;62421;51.412;5.432;2022-10-31T08:29:36;64.07;;;29.80;;
74064;SDS011;62421;51.412;5.432;2022-10-31T08:32:01;49.83;;;27.00;;
74064;SDS011;62421;51.412;5.432;2022-10-31T08:34:27;56.33;;;27.77;;
74064;SDS011;62421;51.412;5.432;2022-10-31T08:36:52;77.43;;;30.40;;
74064;SDS011;62421;51.412;5.432;2022-10-31T08:39:17;61.33;;;29.00;;
74064;SDS011;62421;51.412;5.432;2022-10-31T08:41:43;65.22;;;28.95;;
74064;SDS011;62421;51.412;5.432;2022-10-31T08:44:08;58.33;;;27.48;;
74064;SDS011;62421;51.412;5.432;2022-10-31T08:46:33;58.38;;;27.20;;
74064;SDS011;62421;51.412;5.432;2022-10-31T08:48:59;51.90;;;27.40;;
74064;SDS011;62421;51.412;5.432;2022-10-31T08:51:24;57.60;;;28.10;;
74064;SDS011;62421;51.412;5.432;2022-10-31T08:53:49;55.40;;;27.47;;
74064;SDS011;62421;51.412;5.432;2022-10-31T08:56:15;61.07;;;30.07;;
74064;SDS011;62421;51.412;5.432;2022-10-31T08:58:40;63.60;;;28.37;;
74064;SDS011;62421;51.412;5.432;2022-10-31T09:01:05;70.93;;;31.40;;
74064;SDS011;62421;51.412;5.432;2022-10-31T09:03:31;71.03;;;31.23;;
74064;SDS011;62421;51.412;5.432;2022-10-31T09:06:00;71.10;;;32.13;;
74064;SDS011;62421;51.412;5.432;2022-10-31T09:08:31;86.57;;;34.63;;
74064;SDS011;62421;51.412;5.432;2022-10-31T09:10:58;87.20;;;38.70;;
74064;SDS011;62421;51.412;5.432;2022-10-31T09:13:24;87.95;;;39.08;;
74064;SDS011;62421;51.412;5.432;2022-10-31T09:15:49;85.88;;;37.30;;
74064;SDS011;62421;51.412;5.432;2022-10-31T09:18:17;88.80;;;39.03;;
74064;SDS011;62421;51.412;5.432;2022-10-31T09:20:44;76.75;;;37.72;;
74064;SDS011;62421;51.412;5.432;2022-10-31T09:23:11;85.70;;;37.15;;
74064;SDS011;62421;51.412;5.432;2022-10-31T09:25:38;68.15;;;33.55;;
74064;SDS011;62421;51.412;5.432;2022-10-31T09:28:05;74.53;;;35.15;;
74064;SDS011;62421;51.412;5.432;2022-10-31T09:30:32;73.23;;;34.23;;
74064;SDS011;62421;51.412;5.432;2022-10-31T09:32:59;73.15;;;34.20;;
74064;SDS011;62421;51.412;5.432;2022-10-31T09:35:29;70.88;;;34.60;;
74064;SDS011;62421;51.412;5.432;2022-10-31T09:37:58;70.80;;;33.90;;
74064;SDS011;62421;51.412;5.432;2022-10-31T09:40:29;73.35;;;32.00;;
74064;SDS011;62421;51.412;5.432;2022-10-31T09:43:02;73.95;;;33.17;;
74064;SDS011;62421;51.412;5.432;2022-10-31T09:51:15;85.65;;;35.50;;
74064;SDS011;62421;51.412;5.432;2022-10-31T09:53:52;78.25;;;34.78;;
74064;SDS011;62421;51.412;5.432;2022-10-31T09:56:23;95.38;;;39.03;;
74064;SDS011;62421;51.412;5.432;2022-10-31T09:58:55;91.10;;;36.47;;
74064;SDS011;62421;51.412;5.432;2022-10-31T10:01:34;93.75;;;35.80;;
74064;SDS011;62421;51.412;5.432;2022-10-31T10:07:29;94.18;;;40.40;;
74064;SDS011;62421;51.412;5.432;2022-10-31T10:24:24;99.60;;;38.63;;
74064;SDS011;62421;51.412;5.432;2022-10-31T10:29:58;92.35;;;36.35;;
74064;SDS011;62421;51.412;5.432;2022-10-31T10:32:28;96.03;;;37.20;;
74064;SDS011;62421;51.412;5.432;2022-10-31T10:34:57;101.30;;;38.67;;
74064;SDS011;62421;51.412;5.432;2022-10-31T10:37:31;89.95;;;36.78;;
74064;SDS011;62421;51.412;5.432;2022-10-31T10:40:07;90.90;;;36.70;;
74064;SDS011;62421;51.412;5.432;2022-10-31T10:42:39;92.93;;;36.75;;
74064;SDS011;62421;51.412;5.432;2022-10-31T10:45:23;84.50;;;36.22;;
74064;SDS011;62421;51.412;5.432;2022-10-31T10:48:11;82.15;;;34.53;;
74064;SDS011;62421;51.412;5.432;2022-10-31T10:50:47;85.45;;;35.42;;
74064;SDS011;62421;51.412;5.432;2022-10-31T10:53:18;79.00;;;34.87;;
74064;SDS011;62421;51.412;5.432;2022-10-31T10:56:02;89.80;;;35.65;;
74064;SDS011;62421;51.412;5.432;2022-10-31T10:58:37;90.82;;;38.58;;
74064;SDS011;62421;51.412;5.432;2022-10-31T11:01:09;80.65;;;35.95;;
74064;SDS011;62421;51.412;5.432;2022-10-31T11:03:36;80.57;;;33.28;;
74064;SDS011;62421;51.412;5.432;2022-10-31T11:06:02;75.87;;;34.30;;
74064;SDS011;62421;51.412;5.432;2022-10-31T11:08:28;75.90;;;34.83;;
74064;SDS011;62421;51.412;5.432;2022-10-31T11:11:03;70.18;;;34.25;;
74064;SDS011;62421;51.412;5.432;2022-10-31T11:13:45;76.18;;;33.88;;
74064;SDS011;62421;51.412;5.432;2022-10-31T11:16:13;77.53;;;34.93;;
74064;SDS011;62421;51.412;5.432;2022-10-31T11:18:51;63.45;;;30.52;;
74064;SDS011;62421;51.412;5.432;2022-10-31T11:21:23;64.18;;;31.30;;
74064;SDS011;62421;51.412;5.432;2022-10-31T11:26:38;71.40;;;31.00;;
74064;SDS011;62421;51.412;5.432;2022-10-31T11:29:05;61.77;;;30.80;;
74064;SDS011;62421;51.412;5.432;2022-10-31T11:31:38;59.63;;;29.45;;
74064;SDS011;62421;51.412;5.432;2022-10-31T11:34:06;64.07;;;31.25;;
74064;SDS011;62421;51.412;5.432;2022-10-31T11:36:38;62.92;;;31.50;;
74064;SDS011;62421;51.412;5.432;2022-10-31T11:39:21;56.47;;;26.20;;
74064;SDS011;62421;51.412;5.432;2022-10-31T11:41:49;61.80;;;29.13;;
74064;SDS011;62421;51.412;5.432;2022-10-31T11:44:18;59.92;;;28.00;;
74064;SDS011;62421;51.412;5.432;2022-10-31T11:46:48;57.38;;;26.98;;
74064;SDS011;62421;51.412;5.432;2022-10-31T11:49:17;56.60;;;27.27;;
74064;SDS011;62421;51.412;5.432;2022-10-31T11:51:49;56.55;;;27.20;;
74064;SDS011;62421;51.412;5.432;2022-10-31T11:54:21;63.00;;;29.43;;
74064;SDS011;62421;51.412;5.432;2022-10-31T11:56:50;57.05;;;26.08;;
74064;SDS011;62421;51.412;5.432;2022-10-31T11:59:17;60.88;;;27.23;;
74064;SDS011;62421;51.412;5.432;2022-10-31T12:01:46;51.28;;;24.33;;
74064;SDS011;62421;51.412;5.432;2022-10-31T12:04:14;64.85;;;26.73;;
74064;SDS011;62421;51.412;5.432;2022-10-31T12:06:42;53.08;;;26.23;;
74064;SDS011;62421;51.412;5.432;2022-10-31T12:09:21;58.85;;;27.55;;
74064;SDS011;62421;51.412;5.432;2022-10-31T12:17:19;58.40;;;27.52;;
74064;SDS011;62421;51.412;5.432;2022-10-31T12:20:07;52.03;;;25.98;;
74064;SDS011;62421;51.412;5.432;2022-10-31T12:22:47;58.50;;;25.58;;
74064;SDS011;62421;51.412;5.432;2022-10-31T12:28:51;54.10;;;22.65;;
74064;SDS011;62421;51.412;5.432;2022-10-31T12:37:01;39.50;;;20.13;;
74064;SDS011;62421;51.412;5.432;2022-10-31T12:39:46;42.77;;;20.00;;
74064;SDS011;62421;51.412;5.432;2022-10-31T12:42:49;43.25;;;19.98;;
74064;SDS011;62421;51.412;5.432;2022-10-31T12:59:41;45.35;;;19.27;;
74064;SDS011;62421;51.412;5.432;2022-10-31T13:02:16;39.75;;;17.80;;
74064;SDS011;62421;51.412;5.432;2022-10-31T13:10:00;39.47;;;17.67;;
74064;SDS011;62421;51.412;5.432;2022-10-31T13:12:34;38.75;;;17.13;;
74064;SDS011;62421;51.412;5.432;2022-10-31T13:15:03;38.97;;;17.20;;
74064;SDS011;62421;51.412;5.432;2022-10-31T13:17:38;40.13;;;16.58;;
74064;SDS011;62421;51.412;5.432;2022-10-31T13:22:39;38.70;;;16.20;;
74064;SDS011;62421;51.412;5.432;2022-10-31T13:27:54;38.77;;;17.70;;
74064;SDS011;62421;51.412;5.432;2022-10-31T13:30:24;35.17;;;15.70;;
74064;SDS011;62421;51.412;5.432;2022-10-31T13:33:00;36.17;;;14.45;;
74064;SDS011;62421;51.412;5.432;2022-10-31T13:35:51;28.90;;;13.30;;
74064;SDS011;62421;51.412;5.432;2022-10-31T13:38:22;33.42;;;14.10;;
74064;SDS011;62421;51.412;5.432;2022-10-31T13:41:03;36.80;;;15.00;;
74064;SDS011;62421;51.412;5.432;2022-10-31T13:46:34;37.88;;;14.98;;
74064;SDS011;62421;51.412;5.432;2022-10-31T13:49:04;36.50;;;14.80;;
74064;SDS011;62421;51.412;5.432;2022-10-31T13:54:35;31.17;;;14.38;;
74064;SDS011;62421;51.412;5.432;2022-10-31T13:57:19;41.50;;;14.85;;
74064;SDS011;62421;51.412;5.432;2022-10-31T13:59:54;30.52;;;16.00;;
74064;SDS011;62421;51.412;5.432;2022-10-31T14:02:25;37.07;;;15.03;;
74064;SDS011;62421;51.412;5.432;2022-10-31T14:04:57;36.30;;;16.27;;
74064;SDS011;62421;51.412;5.432;2022-10-31T14:07:25;36.70;;;15.60;;
74064;SDS011;62421;51.412;5.432;2022-10-31T14:10:06;37.75;;;13.75;;
74064;SDS011;62421;51.412;5.432;2022-10-31T14:12:45;36.75;;;15.80;;
74064;SDS011;62421;51.412;5.432;2022-10-31T14:15:14;35.13;;;14.50;;
74064;SDS011;62421;51.412;5.432;2022-10-31T14:17:46;30.15;;;13.85;;
74064;SDS011;62421;51.412;5.432;2022-10-31T14:23:12;26.70;;;13.73;;
74064;SDS011;62421;51.412;5.432;2022-10-31T14:25:53;33.47;;;13.60;;
74064;SDS011;62421;51.412;5.432;2022-10-31T14:28:31;28.57;;;13.40;;
74064;SDS011;62421;51.412;5.432;2022-10-31T14:30:58;27.13;;;12.93;;
74064;SDS011;62421;51.412;5.432;2022-10-31T14:33:25;30.58;;;13.75;;
74064;SDS011;62421;51.412;5.432;2022-10-31T14:49:04;31.02;;;13.32;;
74064;SDS011;62421;51.412;5.432;2022-10-31T14:51:46;31.05;;;12.73;;
74064;SDS011;62421;51.412;5.432;2022-10-31T14:54:48;25.13;;;13.10;;
74064;SDS011;62421;51.412;5.432;2022-10-31T14:57:15;25.55;;;12.38;;
74064;SDS011;62421;51.412;5.432;2022-10-31T14:59:47;30.85;;;13.55;;
74064;SDS011;62421;51.412;5.432;2022-10-31T15:02:18;25.35;;;12.40;;
74064;SDS011;62421;51.412;5.432;2022-10-31T15:04:49;29.13;;;12.27;;
74064;SDS011;62421;51.412;5.432;2022-10-31T15:07:18;28.43;;;13.20;;
74064;SDS011;62421;51.412;5.432;2022-10-31T15:10:01;26.38;;;11.88;;
74064;SDS011;62421;51.412;5.432;2022-10-31T15:12:32;32.58;;;12.27;;
74064;SDS011;62421;51.412;5.432;2022-10-31T15:17:59;29.73;;;12.02;;
74064;SDS011;62421;51.412;5.432;2022-10-31T15:20:26;27.17;;;11.80;;
74064;SDS011;62421;51.412;5.432;2022-10-31T15:22:54;27.40;;;12.25;;
74064;SDS011;62421;51.412;5.432;2022-10-31T15:25:22;29.00;;;12.40;;
74064;SDS011;62421;51.412;5.432;2022-10-31T15:27:50;30.48;;;13.25;;
74064;SDS011;62421;51.412;5.432;2022-10-31T15:30:20;29.38;;;13.18;;
74064;SDS011;62421;51.412;5.432;2022-10-31T15:32:48;28.97;;;11.40;;
74064;SDS011;62421;51.412;5.432;2022-10-31T15:37:52;31.42;;;12.60;;
74064;SDS011;62421;51.412;5.432;2022-10-31T15:40:19;26.25;;;12.18;;
74064;SDS011;62421;51.412;5.432;2022-10-31T15:42:54;27.48;;;11.43;;
74064;SDS011;62421;51.412;5.432;2022-10-31T15:45:23;25.00;;;11.57;;
74064;SDS011;62421;51.412;5.432;2022-10-31T15:48:01;26.15;;;11.02;;
74064;SDS011;62421;51.412;5.432;2022-10-31T15:50:34;21.55;;;10.43;;
74064;SDS011;62421;51.412;5.432;2022-10-31T15:53:03;26.40;;;10.85;;
74064;SDS011;62421;51.412;5.432;2022-10-31T15:55:32;23.95;;;11.15;;
74064;SDS011;62421;51.412;5.432;2022-10-31T15:58:04;22.83;;;10.60;;
74064;SDS011;62421;51.412;5.432;2022-10-31T16:00:37;27.77;;;11.18;;
74064;SDS011;62421;51.412;5.432;2022-10-31T16:03:07;25.55;;;9.80;;
74064;SDS011;62421;51.412;5.432;2022-10-31T16:10:50;21.27;;;10.20;;
74064;SDS011;62421;51.412;5.432;2022-10-31T16:13:16;23.37;;;11.40;;
74064;SDS011;62421;51.412;5.432;2022-10-31T16:15:49;25.50;;;10.60;;
74064;SDS011;62421;51.412;5.432;2022-10-31T16:18:17;23.70;;;10.80;;
74064;SDS011;62421;51.412;5.432;2022-10-31T16:20:47;26.37;;;10.63;;
74064;SDS011;62421;51.412;5.432;2022-10-31T16:23:17;33.75;;;10.68;;
74064;SDS011;62421;51.412;5.432;2022-10-31T16:25:44;23.25;;;11.50;;
74064;SDS011;62421;51.412;5.432;2022-10-31T16:28:16;28.83;;;10.23;;
74064;SDS011;62421;51.412;5.432;2022-10-31T16:30:44;26.02;;;9.85;;
74064;SDS011;62421;51.412;5.432;2022-10-31T16:33:25;29.60;;;10.55;;
74064;SDS011;62421;51.412;5.432;2022-10-31T16:35:56;27.83;;;10.83;;
74064;SDS011;62421;51.412;5.432;2022-10-31T16:38:23;31.90;;;9.88;;
74064;SDS011;62421;51.412;5.432;2022-10-31T16:40:49;28.52;;;9.98;;
74064;SDS011;62421;51.412;5.432;2022-10-31T16:43:16;21.60;;;9.32;;
74064;SDS011;62421;51.412;5.432;2022-10-31T16:45:44;27.13;;;9.83;;
74064;SDS011;62421;51.412;5.432;2022-10-31T16:48:12;19.48;;;10.07;;
74064;SDS011;62421;51.412;5.432;2022-10-31T16:50:39;23.40;;;9.23;;
74064;SDS011;62421;51.412;5.432;2022-10-31T16:53:06;31.13;;;9.80;;
74064;SDS011;62421;51.412;5.432;2022-10-31T16:55:31;24.67;;;10.73;;
74064;SDS011;62421;51.412;5.432;2022-10-31T16:58:00;25.42;;;9.88;;
74064;SDS011;62421;51.412;5.432;2022-10-31T17:00:26;23.33;;;9.50;;
74064;SDS011;62421;51.412;5.432;2022-10-31T17:02:53;27.27;;;10.23;;